createdAt,value
2017-09-05T00:01:14.546Z,5.80
2017-09-05T00:03:42.100Z,6.33
2017-09-05T00:06:09.620Z,5.50
2017-09-05T00:08:37.792Z,5.70
2017-09-05T00:11:10.980Z,5.53
2017-09-05T00:13:40.128Z,6.03
2017-09-05T00:19:09.708Z,5.97
2017-09-05T00:21:37.247Z,6.20
2017-09-05T00:24:04.835Z,6.17
2017-09-05T00:26:32.373Z,5.80
2017-09-05T00:29:00.100Z,5.77
2017-09-05T00:31:27.651Z,6.40
2017-09-05T00:33:55.160Z,5.70
2017-09-05T00:36:22.712Z,5.17
2017-09-05T00:38:50.301Z,5.33
2017-09-05T00:41:17.824Z,5.40
2017-09-05T00:43:45.396Z,5.30
2017-09-05T00:46:12.902Z,5.03
2017-09-05T00:48:40.564Z,5.60
2017-09-05T00:51:08.109Z,6.10
2017-09-05T00:53:35.662Z,5.93
2017-09-05T00:56:03.220Z,5.83
2017-09-05T00:58:30.841Z,6.07
2017-09-05T01:00:58.439Z,5.80
2017-09-05T01:03:25.969Z,5.47
2017-09-05T01:05:53.544Z,5.80
2017-09-05T01:08:21.070Z,4.90
2017-09-05T01:10:48.616Z,5.30
2017-09-05T01:13:16.353Z,5.30
2017-09-05T01:15:43.910Z,4.67
2017-09-05T01:18:11.457Z,4.73
2017-09-05T01:20:38.996Z,4.57
2017-09-05T01:23:06.565Z,4.30
2017-09-05T01:25:34.250Z,4.47
2017-09-05T01:28:01.819Z,4.10
2017-09-05T01:30:29.406Z,2.97
2017-09-05T01:32:56.931Z,4.17
2017-09-05T01:35:24.520Z,3.87
2017-09-05T01:37:52.096Z,3.73
2017-09-05T01:40:19.649Z,3.80
2017-09-05T01:42:47.242Z,4.30
2017-09-05T01:45:14.758Z,3.77
2017-09-05T01:47:42.280Z,4.17
2017-09-05T01:50:09.871Z,4.90
2017-09-05T01:52:37.485Z,5.20
2017-09-05T01:55:05.014Z,4.40
2017-09-05T01:57:32.727Z,4.87
2017-09-05T02:00:00.251Z,5.10
2017-09-05T02:02:27.784Z,4.50
2017-09-05T02:04:55.446Z,5.13
2017-09-05T02:07:23.004Z,5.23
2017-09-05T02:09:50.551Z,5.77
2017-09-05T02:12:18.103Z,5.63
2017-09-05T02:14:45.652Z,5.60
2017-09-05T02:17:13.205Z,5.40
2017-09-05T02:19:40.749Z,5.50
2017-09-05T02:22:08.306Z,5.10
2017-09-05T02:24:35.823Z,4.70
2017-09-05T02:27:03.379Z,6.20
2017-09-05T02:29:30.919Z,5.90
2017-09-05T02:31:58.440Z,5.50
2017-09-05T02:34:26.007Z,4.93
2017-09-05T02:36:53.531Z,4.60
2017-09-05T02:39:21.100Z,5.30
2017-09-05T02:41:48.613Z,5.37
2017-09-05T02:44:16.193Z,4.80
2017-09-05T02:46:43.755Z,5.53
2017-09-05T02:49:11.312Z,4.67
2017-09-05T02:51:38.859Z,4.40
2017-09-05T02:54:06.409Z,4.53
2017-09-05T02:56:33.996Z,4.70
2017-09-05T02:59:01.561Z,4.30
2017-09-05T03:01:29.089Z,4.33
2017-09-05T03:03:56.649Z,4.83
2017-09-05T03:06:24.164Z,4.60
2017-09-05T03:08:51.713Z,4.03
2017-09-05T03:11:19.227Z,5.00
2017-09-05T03:13:46.813Z,4.40
2017-09-05T03:16:14.368Z,5.40
2017-09-05T03:18:41.919Z,4.63
2017-09-05T03:21:09.459Z,4.57
2017-09-05T03:23:37.068Z,5.50
2017-09-05T03:26:04.670Z,4.20
2017-09-05T03:28:32.199Z,4.07
2017-09-05T03:30:59.794Z,3.50
2017-09-05T03:33:27.343Z,4.00
2017-09-05T03:35:54.872Z,3.83
2017-09-05T03:38:22.420Z,3.17
2017-09-05T03:40:50.006Z,4.03
2017-09-05T03:43:17.559Z,3.50
2017-09-05T03:45:45.135Z,3.40
2017-09-05T03:48:12.726Z,4.10
2017-09-05T03:50:40.264Z,3.27
2017-09-05T03:53:07.841Z,3.67
2017-09-05T03:55:35.380Z,4.40
2017-09-05T03:58:02.938Z,3.90
2017-09-05T04:00:30.456Z,4.03
2017-09-05T04:02:58.047Z,3.50
2017-09-05T04:05:25.567Z,4.20
2017-09-05T04:07:53.212Z,4.10
2017-09-05T04:10:20.780Z,4.10
2017-09-05T04:12:48.315Z,4.67
2017-09-05T04:15:15.893Z,4.30
2017-09-05T04:17:43.424Z,4.10
2017-09-05T04:20:10.980Z,4.37
2017-09-05T04:22:38.539Z,3.90
2017-09-05T04:25:06.208Z,3.97
2017-09-05T04:27:33.814Z,4.40
2017-09-05T04:30:01.462Z,4.20
2017-09-05T04:32:29.197Z,3.80
2017-09-05T04:34:56.739Z,4.20
2017-09-05T04:37:24.387Z,4.07
2017-09-05T04:39:51.939Z,3.93
2017-09-05T04:42:19.460Z,3.87
2017-09-05T04:44:47.030Z,4.20
2017-09-05T04:47:14.553Z,4.40
2017-09-05T04:49:42.120Z,4.80
2017-09-05T04:52:09.668Z,4.33
2017-09-05T04:54:37.227Z,4.33
2017-09-05T04:57:04.770Z,5.23
2017-09-05T04:59:32.291Z,5.40
2017-09-05T05:01:59.816Z,4.47
2017-09-05T05:04:27.475Z,5.37
2017-09-05T05:06:55.048Z,4.80
2017-09-05T05:09:22.571Z,4.93
2017-09-05T05:11:50.125Z,4.50
2017-09-05T05:14:17.835Z,5.20
2017-09-05T05:16:45.450Z,4.90
2017-09-05T05:19:12.967Z,4.27
2017-09-05T05:21:40.496Z,5.17
2017-09-05T05:24:08.046Z,4.67
2017-09-05T05:26:35.559Z,4.07
2017-09-05T05:29:03.230Z,4.00
2017-09-05T05:31:30.774Z,4.60
2017-09-05T05:33:58.310Z,4.17
2017-09-05T05:36:25.932Z,4.43
2017-09-05T05:38:53.469Z,4.03
2017-09-05T05:41:21.179Z,4.23
2017-09-05T05:43:48.748Z,3.80
2017-09-05T05:46:16.330Z,4.37
2017-09-05T05:48:43.869Z,3.50
2017-09-05T05:51:11.477Z,3.63
2017-09-05T05:53:39.081Z,4.03
2017-09-05T05:56:06.601Z,3.47
2017-09-05T05:58:34.240Z,3.57
2017-09-05T06:01:01.823Z,4.00
2017-09-05T06:03:29.411Z,3.23
2017-09-05T06:05:56.992Z,3.57
2017-09-05T06:08:24.512Z,3.80
2017-09-05T06:10:52.071Z,3.77
2017-09-05T06:13:19.606Z,3.73
2017-09-05T06:15:47.499Z,4.00
2017-09-05T06:18:15.138Z,4.27
2017-09-05T06:20:42.700Z,3.43
2017-09-05T06:23:10.265Z,3.80
2017-09-05T06:25:37.785Z,4.33
2017-09-05T06:28:05.401Z,3.97
2017-09-05T06:30:32.977Z,3.20
2017-09-05T06:33:00.622Z,5.10
2017-09-05T06:35:28.171Z,3.93
2017-09-05T06:37:55.737Z,5.00
2017-09-05T06:40:23.309Z,4.07
2017-09-05T06:42:50.854Z,4.43
2017-09-05T06:45:18.432Z,3.67
2017-09-05T06:47:46.016Z,4.40
2017-09-05T06:50:13.578Z,3.70
2017-09-05T06:52:41.145Z,3.70
2017-09-05T06:55:08.734Z,3.70
2017-09-05T06:57:36.272Z,3.17
2017-09-05T07:00:03.989Z,4.10
2017-09-05T07:02:31.603Z,4.13
2017-09-05T07:04:59.227Z,3.33
2017-09-05T07:07:28.355Z,5.33
2017-09-05T07:09:57.075Z,4.50
2017-09-05T07:12:24.826Z,4.10
2017-09-05T07:14:52.403Z,4.50
2017-09-05T07:17:20.018Z,5.40
2017-09-05T07:19:47.701Z,5.03
2017-09-05T07:22:15.342Z,6.63
2017-09-05T07:24:42.912Z,4.10
2017-09-05T07:27:10.546Z,4.17
2017-09-05T07:29:38.246Z,4.90
2017-09-05T07:32:05.793Z,4.83
2017-09-05T07:34:33.478Z,4.30
2017-09-05T07:37:01.086Z,5.00
2017-09-05T07:39:28.745Z,4.40
2017-09-05T07:41:56.400Z,4.30
2017-09-05T07:44:23.991Z,4.20
2017-09-05T07:46:51.513Z,4.87
2017-09-05T07:49:19.072Z,4.70
2017-09-05T07:51:46.646Z,5.00
2017-09-05T07:54:14.306Z,4.80
2017-09-05T07:56:42.008Z,5.07
2017-09-05T07:59:09.528Z,4.40
2017-09-05T08:01:37.251Z,5.30
2017-09-05T08:04:04.824Z,5.07
2017-09-05T08:06:32.381Z,5.70
2017-09-05T08:08:59.908Z,5.50
2017-09-05T08:11:27.531Z,5.10
2017-09-05T08:13:55.709Z,5.37
2017-09-05T08:16:23.272Z,4.87
2017-09-05T08:18:50.841Z,5.30
2017-09-05T08:21:18.435Z,5.30
2017-09-05T08:23:46.169Z,6.33
2017-09-05T08:26:13.706Z,5.30
2017-09-05T08:28:41.292Z,5.30
2017-09-05T08:31:08.871Z,6.47
2017-09-05T08:33:36.446Z,5.70
2017-09-05T08:36:04.220Z,5.67
2017-09-05T08:38:31.879Z,6.10
2017-09-05T08:40:59.499Z,5.67
2017-09-05T08:43:27.073Z,7.03
2017-09-05T08:45:54.603Z,5.93
2017-09-05T08:48:22.279Z,4.60
2017-09-05T08:50:49.821Z,6.20
2017-09-05T08:53:17.483Z,6.80
2017-09-05T08:55:45.042Z,5.77
2017-09-05T08:58:12.558Z,5.30
2017-09-05T09:00:41.889Z,5.10
2017-09-05T09:03:11.700Z,5.17
2017-09-05T09:05:39.609Z,4.50
2017-09-05T09:08:07.846Z,5.07
2017-09-05T09:10:35.387Z,4.20
2017-09-05T09:13:02.973Z,4.40
2017-09-05T09:15:30.597Z,5.17
2017-09-05T09:17:58.149Z,4.30
2017-09-05T09:20:25.869Z,4.93
2017-09-05T09:22:55.092Z,4.30
2017-09-05T09:25:22.668Z,4.10
2017-09-05T09:27:50.276Z,4.10
2017-09-05T09:30:17.824Z,4.43
2017-09-05T09:32:45.352Z,3.57
2017-09-05T09:35:12.950Z,3.50
2017-09-05T09:37:40.491Z,3.13
2017-09-05T09:40:08.008Z,3.60
2017-09-05T09:42:35.592Z,3.70
2017-09-05T09:45:03.317Z,3.90
2017-09-05T09:47:30.864Z,4.10
2017-09-05T09:49:58.511Z,3.57
2017-09-05T09:52:26.059Z,4.20
2017-09-05T09:54:53.570Z,3.60
2017-09-05T09:57:21.135Z,3.60
2017-09-05T09:59:48.644Z,3.57
2017-09-05T10:02:16.173Z,3.40
2017-09-05T10:04:43.728Z,3.97
2017-09-05T10:07:11.263Z,4.13
2017-09-05T10:09:38.784Z,3.17
2017-09-05T10:12:06.391Z,3.30
2017-09-05T10:14:33.900Z,3.20
2017-09-05T10:17:01.419Z,3.43
2017-09-05T10:19:28.968Z,3.13
2017-09-05T10:21:56.541Z,3.27
2017-09-05T10:24:24.113Z,2.93
2017-09-05T10:26:51.623Z,3.60
2017-09-05T10:29:19.132Z,3.30
2017-09-05T10:31:46.684Z,3.03
2017-09-05T10:34:14.225Z,3.50
2017-09-05T10:36:41.743Z,4.13
2017-09-05T10:39:09.290Z,3.27
2017-09-05T10:41:36.955Z,3.00
2017-09-05T10:44:04.477Z,3.60
2017-09-05T10:46:32.032Z,3.87
2017-09-05T10:48:59.556Z,4.00
2017-09-05T10:51:27.118Z,4.03
2017-09-05T10:53:54.711Z,4.33
2017-09-05T10:56:22.923Z,4.20
2017-09-05T10:58:50.465Z,3.73
2017-09-05T11:01:18.083Z,3.20
2017-09-05T11:03:45.686Z,4.03
2017-09-05T11:06:13.274Z,3.70
2017-09-05T11:08:40.913Z,3.93
2017-09-05T11:11:09.461Z,4.40
2017-09-05T11:13:37.547Z,4.30
2017-09-05T11:16:05.067Z,4.13
2017-09-05T11:18:32.596Z,3.40
2017-09-05T11:21:00.171Z,5.37
2017-09-05T11:23:27.701Z,4.37
2017-09-05T11:25:55.260Z,4.10
2017-09-05T11:28:23.482Z,3.50
2017-09-05T11:30:54.054Z,3.10
2017-09-05T11:33:21.812Z,3.43
2017-09-05T11:35:49.369Z,3.20
2017-09-05T11:38:16.931Z,3.80
2017-09-05T11:40:44.437Z,4.40
2017-09-05T11:43:12.025Z,4.03
2017-09-05T11:45:39.593Z,3.60
2017-09-05T11:48:07.208Z,3.33
2017-09-05T11:53:37.134Z,3.90
2017-09-05T11:56:12.269Z,3.80
2017-09-05T11:58:53.876Z,3.40
2017-09-05T12:01:23.204Z,3.63
2017-09-05T12:03:53.033Z,3.87
2017-09-05T12:06:20.552Z,3.33
2017-09-05T12:08:48.119Z,3.40
2017-09-05T12:11:15.865Z,3.63
2017-09-05T12:13:43.396Z,3.37
2017-09-05T12:16:11.014Z,3.07
2017-09-05T12:18:38.586Z,4.30
2017-09-05T12:21:06.895Z,2.67
2017-09-05T12:23:34.416Z,3.10
2017-09-05T12:26:01.984Z,3.20
2017-09-05T12:28:29.500Z,3.00
2017-09-05T12:30:57.021Z,3.13
2017-09-05T12:33:24.559Z,4.33
2017-09-05T12:35:52.106Z,3.60
2017-09-05T12:38:19.668Z,3.93
2017-09-05T12:40:47.180Z,3.73
2017-09-05T12:43:14.732Z,3.70
2017-09-05T12:45:42.323Z,3.40
2017-09-05T12:48:09.866Z,3.27
2017-09-05T12:50:37.416Z,4.20
2017-09-05T12:53:04.959Z,4.13
2017-09-05T12:55:32.521Z,4.00
2017-09-05T12:58:00.063Z,3.33
2017-09-05T13:00:27.577Z,3.53
2017-09-05T13:02:55.180Z,3.43
2017-09-05T13:05:22.688Z,3.80
2017-09-05T13:07:50.199Z,3.63
2017-09-05T13:10:17.778Z,3.50
2017-09-05T13:12:45.377Z,3.30
2017-09-05T13:15:12.948Z,3.40
2017-09-05T13:17:40.488Z,3.10
2017-09-05T13:20:08.005Z,3.17
2017-09-05T13:22:35.602Z,2.90
2017-09-05T13:25:03.123Z,2.80
2017-09-05T13:27:30.677Z,2.90
2017-09-05T13:29:58.248Z,3.20
2017-09-05T13:32:25.816Z,3.47
2017-09-05T13:34:53.362Z,2.90
2017-09-05T13:37:20.904Z,3.10
2017-09-05T13:39:48.451Z,3.40
2017-09-05T13:42:15.971Z,3.67
2017-09-05T13:44:43.535Z,3.67
2017-09-05T13:47:11.092Z,3.20
2017-09-05T13:49:38.604Z,3.20
2017-09-05T13:52:06.132Z,2.90
2017-09-05T13:54:33.683Z,3.30
2017-09-05T13:57:01.274Z,2.57
2017-09-05T13:59:28.756Z,3.37
2017-09-05T14:01:56.280Z,2.87
2017-09-05T14:04:23.898Z,2.60
2017-09-05T14:06:51.440Z,3.87
2017-09-05T14:09:18.952Z,2.97
2017-09-05T14:11:46.491Z,2.87
2017-09-05T14:14:14.004Z,3.00
2017-09-05T14:16:41.663Z,2.80
2017-09-05T14:19:09.168Z,2.10
2017-09-05T14:21:36.703Z,2.23
2017-09-05T14:24:04.220Z,2.40
2017-09-05T14:26:31.763Z,2.50
2017-09-05T14:28:59.282Z,2.27
2017-09-05T14:31:26.870Z,2.40
2017-09-05T14:33:54.415Z,2.47
2017-09-05T14:36:21.929Z,2.37
2017-09-05T14:38:49.492Z,2.23
2017-09-05T14:41:17.035Z,2.80
2017-09-05T14:43:44.552Z,2.60
2017-09-05T14:46:12.095Z,2.90
2017-09-05T14:48:39.809Z,2.43
2017-09-05T14:51:07.318Z,2.37
2017-09-05T14:53:34.839Z,2.63
2017-09-05T14:56:02.380Z,3.00
2017-09-05T14:58:29.884Z,2.60
2017-09-05T15:00:57.420Z,2.17
2017-09-05T15:03:24.939Z,2.30
2017-09-05T15:05:52.683Z,2.73
2017-09-05T15:08:20.217Z,2.23
2017-09-05T15:10:47.739Z,2.50
2017-09-05T15:13:15.276Z,2.77
2017-09-05T15:15:42.810Z,2.80
2017-09-05T15:18:10.320Z,3.00
2017-09-05T15:20:37.874Z,2.50
2017-09-05T15:23:05.383Z,2.70
2017-09-05T15:25:32.919Z,2.70
2017-09-05T15:28:00.433Z,2.80
2017-09-05T15:30:27.999Z,3.00
2017-09-05T15:32:55.508Z,3.70
2017-09-05T15:35:23.177Z,3.60
2017-09-05T15:37:50.710Z,2.63
2017-09-05T15:40:18.247Z,2.60
2017-09-05T15:42:45.791Z,2.87
2017-09-05T15:45:13.664Z,2.60
2017-09-05T15:47:41.262Z,2.57
2017-09-05T15:50:09.095Z,2.97
2017-09-05T15:52:36.659Z,2.87
2017-09-05T15:55:04.555Z,3.20
2017-09-05T15:57:32.349Z,3.10
2017-09-05T16:00:00.014Z,2.80
2017-09-05T16:02:27.515Z,3.00
2017-09-05T16:04:55.027Z,3.20
2017-09-05T16:07:22.575Z,2.70
2017-09-05T16:09:50.132Z,2.87
2017-09-05T16:12:17.688Z,2.73
2017-09-05T16:14:45.267Z,2.83
2017-09-05T16:17:12.994Z,3.30
2017-09-05T16:19:40.637Z,2.83
2017-09-05T16:22:08.226Z,3.00
2017-09-05T16:24:35.881Z,3.70
2017-09-05T16:27:04.336Z,3.03
2017-09-05T16:29:31.982Z,4.47
2017-09-05T16:31:59.744Z,4.17
2017-09-05T16:34:27.513Z,4.30
2017-09-05T16:36:55.241Z,4.33
2017-09-05T16:45:10.202Z,3.47
2017-09-05T16:47:37.776Z,3.23
2017-09-05T16:50:05.316Z,3.70
2017-09-05T16:52:32.962Z,3.17
2017-09-05T16:55:00.572Z,4.07
2017-09-05T16:57:28.176Z,3.10
2017-09-05T16:59:55.793Z,3.50
2017-09-05T17:02:23.507Z,3.17
2017-09-05T17:04:51.177Z,3.20
2017-09-05T17:07:18.853Z,2.90
2017-09-05T17:09:48.889Z,3.53
2017-09-05T17:12:17.375Z,3.40
2017-09-05T17:14:45.728Z,3.73
2017-09-05T17:17:13.369Z,3.63
2017-09-05T17:19:40.962Z,3.10
2017-09-05T17:22:08.574Z,3.93
2017-09-05T17:24:36.363Z,3.80
2017-09-05T17:27:03.982Z,4.43
2017-09-05T17:29:31.569Z,3.90
2017-09-05T17:31:59.150Z,4.07
2017-09-05T17:34:26.813Z,3.90
2017-09-05T17:36:54.429Z,3.70
2017-09-05T17:39:23.290Z,4.63
2017-09-05T17:41:51.144Z,4.67
2017-09-05T17:44:18.913Z,3.93
2017-09-05T17:46:46.629Z,3.60
2017-09-05T17:49:14.398Z,3.93
2017-09-05T17:51:42.090Z,4.30
2017-09-05T17:54:11.067Z,4.13
2017-09-05T17:56:39.487Z,3.87
2017-09-05T17:59:07.311Z,4.30
2017-09-05T18:01:35.606Z,4.20
2017-09-05T18:04:03.236Z,3.93
2017-09-05T18:06:30.957Z,4.63
2017-09-05T18:08:58.804Z,4.00
2017-09-05T18:11:26.517Z,4.97
2017-09-05T18:13:54.396Z,4.37
2017-09-05T18:16:22.029Z,4.50
2017-09-05T18:18:49.884Z,4.40
2017-09-05T18:21:17.618Z,4.17
2017-09-05T18:23:45.422Z,4.20
2017-09-05T18:26:13.100Z,4.20
2017-09-05T18:28:40.992Z,4.17
2017-09-05T18:31:08.589Z,4.40
2017-09-05T18:33:36.345Z,3.90
2017-09-05T18:36:03.940Z,4.20
2017-09-05T18:38:31.597Z,4.60
2017-09-05T18:40:59.338Z,4.63
2017-09-05T18:43:27.108Z,4.80
2017-09-05T18:45:54.853Z,4.87
2017-09-05T18:48:22.370Z,5.00
2017-09-05T18:50:50.190Z,4.87
2017-09-05T18:53:22.620Z,5.20
2017-09-05T18:55:51.914Z,5.07
2017-09-05T18:58:19.694Z,4.60
2017-09-05T19:00:47.646Z,5.10
2017-09-05T19:03:15.574Z,5.00
2017-09-05T19:05:43.241Z,5.40
2017-09-05T19:08:10.968Z,5.10
2017-09-05T19:10:38.745Z,5.70
2017-09-05T19:13:06.371Z,5.57
2017-09-05T19:15:34.432Z,5.73
2017-09-05T19:18:02.207Z,5.30
2017-09-05T19:20:29.807Z,5.00
2017-09-05T19:22:57.379Z,5.53
2017-09-05T19:25:25.111Z,5.60
2017-09-05T19:27:52.791Z,5.20
2017-09-05T19:30:20.388Z,4.87
2017-09-05T19:32:48.064Z,4.63
2017-09-05T19:35:15.673Z,4.90
2017-09-05T19:37:43.388Z,4.93
2017-09-05T19:40:11.166Z,5.10
2017-09-05T19:42:38.836Z,6.77
2017-09-05T19:45:06.500Z,5.10
2017-09-05T19:47:34.050Z,5.10
2017-09-05T19:50:01.810Z,5.03
2017-09-05T19:52:29.540Z,5.23
2017-09-05T19:54:57.186Z,5.30
2017-09-05T19:57:24.922Z,4.23
2017-09-05T19:59:52.713Z,4.60
2017-09-05T20:02:20.318Z,4.73
2017-09-05T20:04:47.958Z,5.60
2017-09-05T20:07:15.598Z,5.00
2017-09-05T20:09:43.226Z,5.27
2017-09-05T20:12:10.857Z,5.40
2017-09-05T20:14:38.485Z,4.93
2017-09-05T20:17:06.117Z,4.30
2017-09-05T20:19:33.741Z,5.33
2017-09-05T20:22:01.526Z,5.20
2017-09-05T20:24:29.132Z,6.17
2017-09-05T20:26:56.854Z,5.20
2017-09-05T20:29:24.430Z,5.03
2017-09-05T20:31:52.071Z,5.03
2017-09-05T20:34:19.670Z,4.83
2017-09-05T20:36:47.339Z,5.70
2017-09-05T20:39:14.963Z,5.43
2017-09-05T20:41:42.582Z,5.93
2017-09-05T20:44:10.177Z,6.27
2017-09-05T20:46:38.073Z,5.40
2017-09-05T20:49:06.746Z,4.87
2017-09-05T20:51:34.396Z,5.40
2017-09-05T20:54:02.029Z,5.80
2017-09-05T20:56:29.697Z,5.30
2017-09-05T20:58:57.217Z,5.43
2017-09-05T21:01:27.730Z,5.50
2017-09-05T21:03:55.495Z,5.60
2017-09-05T21:06:23.129Z,5.60
2017-09-05T21:08:50.924Z,5.67
2017-09-05T21:11:18.523Z,6.47
2017-09-05T21:13:46.229Z,5.67
2017-09-05T21:16:14.006Z,6.00
2017-09-05T21:18:41.682Z,5.70
2017-09-05T21:21:09.363Z,6.07
2017-09-05T21:23:37.197Z,6.60
2017-09-05T21:26:05.034Z,5.20
2017-09-05T21:28:32.859Z,5.63
2017-09-05T21:31:00.487Z,5.07
2017-09-05T21:33:28.207Z,5.20
2017-09-05T21:35:55.826Z,6.33
2017-09-05T21:38:23.495Z,6.20
2017-09-05T21:40:51.121Z,6.03
2017-09-05T21:43:18.964Z,5.90
2017-09-05T21:45:46.793Z,5.60
2017-09-05T21:48:14.552Z,5.77
2017-09-05T21:50:42.233Z,5.03
2017-09-05T21:53:09.967Z,4.70
2017-09-05T21:55:37.564Z,4.93
2017-09-05T21:58:05.297Z,5.00
2017-09-05T22:00:32.933Z,4.80
2017-09-05T22:03:00.533Z,4.60
2017-09-05T22:05:28.213Z,5.43
2017-09-05T22:07:55.864Z,4.70
2017-09-05T22:10:23.536Z,5.03
2017-09-05T22:12:51.165Z,4.63
2017-09-05T22:15:24.485Z,5.07
2017-09-05T22:17:52.133Z,5.40
2017-09-05T22:20:25.422Z,4.67
2017-09-05T22:22:53.111Z,5.37
2017-09-05T22:25:26.470Z,4.40
2017-09-05T22:27:59.859Z,4.70
2017-09-05T22:30:27.557Z,4.50
2017-09-05T22:32:55.153Z,4.97
2017-09-05T22:35:22.826Z,4.43
2017-09-05T22:37:50.478Z,4.20
2017-09-05T22:40:18.162Z,3.93
2017-09-05T22:42:45.833Z,4.67
2017-09-05T22:45:13.449Z,4.30
2017-09-05T22:47:41.101Z,4.20
2017-09-05T22:50:08.707Z,4.20
2017-09-05T22:52:36.367Z,5.07
2017-09-05T22:55:04.026Z,3.80
2017-09-05T22:57:31.660Z,4.23
2017-09-05T22:59:59.357Z,4.00
2017-09-05T23:02:27.082Z,3.73
2017-09-05T23:04:54.737Z,3.57
2017-09-05T23:07:22.360Z,3.50
2017-09-05T23:09:50.026Z,4.37
2017-09-05T23:12:17.593Z,4.30
2017-09-05T23:14:45.251Z,3.53
2017-09-05T23:17:12.849Z,3.90
2017-09-05T23:19:40.573Z,4.17
2017-09-05T23:22:08.216Z,3.80
2017-09-05T23:24:35.837Z,3.70
2017-09-05T23:27:03.433Z,4.07
2017-09-05T23:29:31.113Z,3.57
2017-09-05T23:31:58.917Z,3.93
2017-09-05T23:34:26.664Z,4.43
2017-09-05T23:36:54.313Z,3.70
2017-09-05T23:39:21.898Z,4.10
2017-09-05T23:41:49.540Z,3.53
2017-09-05T23:44:17.170Z,3.80
2017-09-05T23:46:44.744Z,3.00
2017-09-05T23:49:12.405Z,3.60
2017-09-05T23:51:40.038Z,3.93
2017-09-05T23:54:07.660Z,3.93
2017-09-05T23:56:35.338Z,3.20
2017-09-05T23:59:03.001Z,3.57
